Hafnia Karava — 9V3231 — position and weather

sailwx.info

Track history (hours):
 
Tides and Currents Weather Stations Pressure Air Temp Water Temp Dewpoint Dewpoint Depression Visibility Wind Speed Wind Dir Waves Ship Positions

Hafnia Karava

Last reported at 2017-Dec-15 14:42 UTC. Time now 2017-Dec-15 23:28 UTC.
Position N 36°00' W 005°13'.

Length 182 m; draft 7.4 m.

Type: Ship. MMSI: 565977000.

Date/timePositionNaut miles runAvg speedWind from/ knotsBaromVisibWave heightAir tempDewpointWater temp
2017-Dec-15 14:42N 36°00' W 005°13'315.3
2017-Dec-15 14:30N 35°60' W 005°17'815.1
2017-Dec-15 14:00N 35°58' W 005°26'  
2017-Dec-12 17:32N 36°22' W 023°52'012.2
2017-Dec-12 17:29N 36°22' W 023°52'612.6
2017-Dec-12 16:59N 36°22' W 024°00'612.8
2017-Dec-12 16:30N 36°22' W 024°08'612.9
2017-Dec-12 16:00N 36°22' W 024°16'612.8
2017-Dec-12 15:30N 36°23' W 024°24'612.6
2017-Dec-12 15:00N 36°23' W 024°32'612.6
2017-Dec-12 14:31N 36°23' W 024°39'612.6
2017-Dec-12 14:00N 36°23' W 024°47'612.5
2017-Dec-12 13:30N 36°23' W 024°55'612.4
2017-Dec-12 13:00N 36°23' W 025°03'612.5
2017-Dec-12 12:30N 36°23' W 025°11'612.6
2017-Dec-12 12:00N 36°24' W 025°18'612.5
2017-Dec-12 11:30N 36°24' W 025°26'612.7
2017-Dec-12 11:01N 36°24' W 025°34'612.5
2017-Dec-12 10:30N 36°24' W 025°42'612.5
2017-Dec-12 10:00N 36°24' W 025°50'612.7
2017-Dec-12 09:31N 36°24' W 025°57'612.7
2017-Dec-12 09:00N 36°24' W 026°05'612.4
2017-Dec-12 08:30N 36°24' W 026°13'812.6
2017-Dec-12 07:54N 36°24' W 026°23'19512.8
2017-Dec-11 16:39N 36°31' W 030°25'  
Track history (hours):
 
Tides and Currents Weather Stations Pressure Air Temp Water Temp Dewpoint Dewpoint Depression Visibility Wind Speed Wind Dir Waves Ship Positions

Hafnia Karava

Last reported at 2017-Dec-15 14:42 UTC. Time now 2017-Dec-15 23:28 UTC.
Position N 36°00' W 005°13'.

Length 182 m; draft 7.4 m.

Type: Ship. MMSI: 565977000.

Date/timePositionNaut miles runAvg speedWind from/ knotsBaromVisibWave heightAir tempDewpointWater temp
2017-Dec-15 14:42N 36°00' W 005°13'315.3
2017-Dec-15 14:30N 35°60' W 005°17'815.1
2017-Dec-15 14:00N 35°58' W 005°26'  
2017-Dec-12 17:32N 36°22' W 023°52'012.2
2017-Dec-12 17:29N 36°22' W 023°52'612.6
2017-Dec-12 16:59N 36°22' W 024°00'612.8
2017-Dec-12 16:30N 36°22' W 024°08'612.9
2017-Dec-12 16:00N 36°22' W 024°16'612.8
2017-Dec-12 15:30N 36°23' W 024°24'612.6
2017-Dec-12 15:00N 36°23' W 024°32'612.6
2017-Dec-12 14:31N 36°23' W 024°39'612.6
2017-Dec-12 14:00N 36°23' W 024°47'612.5
2017-Dec-12 13:30N 36°23' W 024°55'612.4
2017-Dec-12 13:00N 36°23' W 025°03'612.5
2017-Dec-12 12:30N 36°23' W 025°11'612.6
2017-Dec-12 12:00N 36°24' W 025°18'612.5
2017-Dec-12 11:30N 36°24' W 025°26'612.7
2017-Dec-12 11:01N 36°24' W 025°34'612.5
2017-Dec-12 10:30N 36°24' W 025°42'612.5
2017-Dec-12 10:00N 36°24' W 025°50'612.7
2017-Dec-12 09:31N 36°24' W 025°57'612.7
2017-Dec-12 09:00N 36°24' W 026°05'612.4
2017-Dec-12 08:30N 36°24' W 026°13'812.6
2017-Dec-12 07:54N 36°24' W 026°23'19512.8
2017-Dec-11 16:39N 36°31' W 030°25'  

Dump ship's entire track history